sensor_id;sensor_type;location;lat;lon;timestamp;P1;durP1;ratioP1;P2;durP2;ratioP2
78664;SDS011;67981;51.022;-2.870;2023-02-28T00:02:16;5.88;;;2.15;;
78664;SDS011;67981;51.022;-2.870;2023-02-28T00:04:42;4.82;;;2.40;;
78664;SDS011;67981;51.022;-2.870;2023-02-28T00:07:08;5.38;;;2.63;;
78664;SDS011;67981;51.022;-2.870;2023-02-28T00:09:34;7.75;;;2.40;;
78664;SDS011;67981;51.022;-2.870;2023-02-28T00:11:59;4.63;;;2.35;;
78664;SDS011;67981;51.022;-2.870;2023-02-28T00:14:25;4.10;;;1.83;;
78664;SDS011;67981;51.022;-2.870;2023-02-28T00:16:50;7.55;;;2.55;;
78664;SDS011;67981;51.022;-2.870;2023-02-28T00:19:16;4.30;;;2.35;;
78664;SDS011;67981;51.022;-2.870;2023-02-28T00:21:41;4.78;;;3.00;;
78664;SDS011;67981;51.022;-2.870;2023-02-28T00:24:07;6.32;;;2.80;;
78664;SDS011;67981;51.022;-2.870;2023-02-28T00:26:33;5.60;;;2.42;;
78664;SDS011;67981;51.022;-2.870;2023-02-28T00:28:58;4.88;;;2.28;;
78664;SDS011;67981;51.022;-2.870;2023-02-28T00:31:24;7.03;;;2.20;;
78664;SDS011;67981;51.022;-2.870;2023-02-28T00:33:49;6.43;;;2.60;;
78664;SDS011;67981;51.022;-2.870;2023-02-28T00:36:16;6.22;;;2.58;;
78664;SDS011;67981;51.022;-2.870;2023-02-28T00:38:42;6.68;;;2.47;;
78664;SDS011;67981;51.022;-2.870;2023-02-28T00:41:08;5.22;;;2.63;;
78664;SDS011;67981;51.022;-2.870;2023-02-28T00:43:34;6.97;;;2.40;;
78664;SDS011;67981;51.022;-2.870;2023-02-28T00:46:00;6.20;;;2.50;;
78664;SDS011;67981;51.022;-2.870;2023-02-28T00:48:27;7.55;;;2.42;;
78664;SDS011;67981;51.022;-2.870;2023-02-28T00:50:53;4.07;;;2.25;;
78664;SDS011;67981;51.022;-2.870;2023-02-28T00:53:18;4.30;;;2.10;;
78664;SDS011;67981;51.022;-2.870;2023-02-28T00:55:43;6.80;;;2.55;;
78664;SDS011;67981;51.022;-2.870;2023-02-28T00:58:09;4.53;;;2.45;;
78664;SDS011;67981;51.022;-2.870;2023-02-28T01:00:34;6.13;;;2.70;;
78664;SDS011;67981;51.022;-2.870;2023-02-28T01:03:00;6.43;;;2.72;;
78664;SDS011;67981;51.022;-2.870;2023-02-28T01:05:25;9.98;;;2.67;;
78664;SDS011;67981;51.022;-2.870;2023-02-28T01:07:50;11.45;;;2.65;;
78664;SDS011;67981;51.022;-2.870;2023-02-28T01:10:16;4.90;;;2.38;;
78664;SDS011;67981;51.022;-2.870;2023-02-28T01:12:41;5.18;;;2.65;;
78664;SDS011;67981;51.022;-2.870;2023-02-28T01:15:09;9.73;;;3.00;;
78664;SDS011;67981;51.022;-2.870;2023-02-28T01:17:35;4.28;;;2.40;;
78664;SDS011;67981;51.022;-2.870;2023-02-28T01:20:01;7.15;;;2.88;;
78664;SDS011;67981;51.022;-2.870;2023-02-28T01:22:26;6.80;;;2.40;;
78664;SDS011;67981;51.022;-2.870;2023-02-28T01:24:52;4.22;;;3.08;;
78664;SDS011;67981;51.022;-2.870;2023-02-28T01:27:18;6.22;;;2.85;;
78664;SDS011;67981;51.022;-2.870;2023-02-28T01:29:43;9.15;;;3.53;;
78664;SDS011;67981;51.022;-2.870;2023-02-28T01:32:08;10.70;;;3.38;;
78664;SDS011;67981;51.022;-2.870;2023-02-28T01:34:34;6.55;;;3.72;;
78664;SDS011;67981;51.022;-2.870;2023-02-28T01:36:59;11.50;;;3.33;;
78664;SDS011;67981;51.022;-2.870;2023-02-28T01:39:25;5.72;;;2.88;;
78664;SDS011;67981;51.022;-2.870;2023-02-28T01:41:51;7.38;;;3.75;;
78664;SDS011;67981;51.022;-2.870;2023-02-28T01:47:20;5.30;;;2.42;;
78664;SDS011;67981;51.022;-2.870;2023-02-28T01:49:46;10.52;;;3.65;;
78664;SDS011;67981;51.022;-2.870;2023-02-28T01:52:12;6.00;;;3.03;;
78664;SDS011;67981;51.022;-2.870;2023-02-28T01:54:43;6.57;;;2.67;;
78664;SDS011;67981;51.022;-2.870;2023-02-28T01:57:16;7.45;;;3.15;;
78664;SDS011;67981;51.022;-2.870;2023-02-28T01:59:48;7.55;;;3.15;;
78664;SDS011;67981;51.022;-2.870;2023-02-28T02:02:20;5.15;;;3.08;;
78664;SDS011;67981;51.022;-2.870;2023-02-28T02:07:41;10.35;;;3.97;;
78664;SDS011;67981;51.022;-2.870;2023-02-28T02:18:10;6.68;;;3.67;;
78664;SDS011;67981;51.022;-2.870;2023-02-28T02:28:47;11.50;;;4.00;;
78664;SDS011;67981;51.022;-2.870;2023-02-28T02:31:29;10.63;;;4.13;;
78664;SDS011;67981;51.022;-2.870;2023-02-28T02:36:35;9.55;;;4.72;;
78664;SDS011;67981;51.022;-2.870;2023-02-28T02:39:16;9.70;;;5.25;;
78664;SDS011;67981;51.022;-2.870;2023-02-28T02:41:49;11.27;;;5.50;;
78664;SDS011;67981;51.022;-2.870;2023-02-28T02:47:18;8.60;;;5.18;;
78664;SDS011;67981;51.022;-2.870;2023-02-28T02:49:50;14.57;;;5.30;;
78664;SDS011;67981;51.022;-2.870;2023-02-28T02:52:18;11.82;;;5.18;;
78664;SDS011;67981;51.022;-2.870;2023-02-28T02:54:47;12.52;;;6.13;;
78664;SDS011;67981;51.022;-2.870;2023-02-28T02:57:29;11.82;;;6.07;;
78664;SDS011;67981;51.022;-2.870;2023-02-28T03:00:02;14.27;;;5.20;;
78664;SDS011;67981;51.022;-2.870;2023-02-28T03:04:59;7.93;;;5.05;;
78664;SDS011;67981;51.022;-2.870;2023-02-28T03:07:27;9.85;;;5.15;;
78664;SDS011;67981;51.022;-2.870;2023-02-28T03:09:56;9.57;;;5.25;;
78664;SDS011;67981;51.022;-2.870;2023-02-28T03:12:23;12.38;;;5.10;;
78664;SDS011;67981;51.022;-2.870;2023-02-28T03:15:23;9.43;;;4.85;;
78664;SDS011;67981;51.022;-2.870;2023-02-28T03:18:10;8.27;;;4.28;;
78664;SDS011;67981;51.022;-2.870;2023-02-28T03:20:49;9.00;;;4.65;;
78664;SDS011;67981;51.022;-2.870;2023-02-28T03:23:38;14.10;;;4.93;;
78664;SDS011;67981;51.022;-2.870;2023-02-28T03:26:22;11.57;;;4.60;;
78664;SDS011;67981;51.022;-2.870;2023-02-28T03:29:00;10.85;;;5.28;;
78664;SDS011;67981;51.022;-2.870;2023-02-28T03:34:11;12.15;;;5.30;;
78664;SDS011;67981;51.022;-2.870;2023-02-28T03:37:08;5.82;;;3.13;;
78664;SDS011;67981;51.022;-2.870;2023-02-28T03:39:45;6.35;;;3.58;;
78664;SDS011;67981;51.022;-2.870;2023-02-28T03:42:20;8.20;;;3.75;;
78664;SDS011;67981;51.022;-2.870;2023-02-28T03:44:55;8.25;;;3.25;;
78664;SDS011;67981;51.022;-2.870;2023-02-28T03:47:29;8.07;;;3.92;;
78664;SDS011;67981;51.022;-2.870;2023-02-28T03:50:24;6.72;;;3.33;;
78664;SDS011;67981;51.022;-2.870;2023-02-28T03:53:06;9.13;;;3.65;;
78664;SDS011;67981;51.022;-2.870;2023-02-28T03:55:40;12.40;;;3.33;;
78664;SDS011;67981;51.022;-2.870;2023-02-28T04:01:12;8.18;;;4.18;;
78664;SDS011;67981;51.022;-2.870;2023-02-28T04:03:44;8.60;;;3.15;;
78664;SDS011;67981;51.022;-2.870;2023-02-28T04:06:13;10.13;;;3.55;;
78664;SDS011;67981;51.022;-2.870;2023-02-28T04:08:42;7.20;;;3.45;;
78664;SDS011;67981;51.022;-2.870;2023-02-28T04:11:12;5.38;;;3.35;;
78664;SDS011;67981;51.022;-2.870;2023-02-28T04:13:43;7.53;;;3.25;;
78664;SDS011;67981;51.022;-2.870;2023-02-28T04:16:09;6.80;;;2.90;;
78664;SDS011;67981;51.022;-2.870;2023-02-28T04:21:04;6.45;;;2.25;;
78664;SDS011;67981;51.022;-2.870;2023-02-28T04:23:30;8.18;;;2.60;;
78664;SDS011;67981;51.022;-2.870;2023-02-28T04:25:56;5.60;;;3.42;;
78664;SDS011;67981;51.022;-2.870;2023-02-28T04:28:21;6.55;;;2.70;;
78664;SDS011;67981;51.022;-2.870;2023-02-28T04:30:47;9.07;;;3.33;;
78664;SDS011;67981;51.022;-2.870;2023-02-28T04:33:12;5.05;;;2.03;;
78664;SDS011;67981;51.022;-2.870;2023-02-28T04:35:38;5.97;;;2.70;;
78664;SDS011;67981;51.022;-2.870;2023-02-28T04:38:03;5.50;;;2.63;;
78664;SDS011;67981;51.022;-2.870;2023-02-28T04:40:29;6.88;;;3.05;;
78664;SDS011;67981;51.022;-2.870;2023-02-28T04:42:54;6.65;;;2.72;;
78664;SDS011;67981;51.022;-2.870;2023-02-28T04:45:20;7.28;;;2.90;;
78664;SDS011;67981;51.022;-2.870;2023-02-28T04:47:45;7.70;;;2.75;;
78664;SDS011;67981;51.022;-2.870;2023-02-28T04:50:10;8.32;;;2.70;;
78664;SDS011;67981;51.022;-2.870;2023-02-28T04:52:36;5.20;;;2.63;;
78664;SDS011;67981;51.022;-2.870;2023-02-28T04:55:01;6.25;;;2.28;;
78664;SDS011;67981;51.022;-2.870;2023-02-28T04:57:27;9.77;;;3.30;;
78664;SDS011;67981;51.022;-2.870;2023-02-28T04:59:52;3.67;;;2.53;;
78664;SDS011;67981;51.022;-2.870;2023-02-28T05:02:18;8.48;;;2.42;;
78664;SDS011;67981;51.022;-2.870;2023-02-28T05:04:43;5.60;;;2.63;;
78664;SDS011;67981;51.022;-2.870;2023-02-28T05:07:08;6.88;;;2.60;;
78664;SDS011;67981;51.022;-2.870;2023-02-28T05:09:34;5.75;;;3.25;;
78664;SDS011;67981;51.022;-2.870;2023-02-28T05:12:00;6.57;;;1.92;;
78664;SDS011;67981;51.022;-2.870;2023-02-28T05:14:25;7.35;;;2.78;;
78664;SDS011;67981;51.022;-2.870;2023-02-28T05:16:51;3.78;;;2.05;;
78664;SDS011;67981;51.022;-2.870;2023-02-28T05:19:16;3.65;;;2.25;;
78664;SDS011;67981;51.022;-2.870;2023-02-28T05:21:53;3.97;;;1.92;;
78664;SDS011;67981;51.022;-2.870;2023-02-28T05:24:19;6.75;;;2.67;;
78664;SDS011;67981;51.022;-2.870;2023-02-28T05:26:48;6.78;;;1.92;;
78664;SDS011;67981;51.022;-2.870;2023-02-28T05:29:14;2.97;;;1.58;;
78664;SDS011;67981;51.022;-2.870;2023-02-28T05:31:39;4.72;;;2.20;;
78664;SDS011;67981;51.022;-2.870;2023-02-28T05:34:05;4.25;;;2.05;;
78664;SDS011;67981;51.022;-2.870;2023-02-28T05:36:31;5.45;;;2.53;;
78664;SDS011;67981;51.022;-2.870;2023-02-28T05:38:56;5.55;;;2.13;;
78664;SDS011;67981;51.022;-2.870;2023-02-28T05:41:22;6.45;;;2.17;;
78664;SDS011;67981;51.022;-2.870;2023-02-28T05:43:47;4.40;;;2.33;;
78664;SDS011;67981;51.022;-2.870;2023-02-28T05:46:14;7.15;;;2.22;;
78664;SDS011;67981;51.022;-2.870;2023-02-28T05:48:40;8.00;;;2.00;;
78664;SDS011;67981;51.022;-2.870;2023-02-28T05:51:07;3.65;;;2.20;;
78664;SDS011;67981;51.022;-2.870;2023-02-28T05:53:33;5.63;;;1.80;;
78664;SDS011;67981;51.022;-2.870;2023-02-28T05:55:59;6.45;;;2.60;;
78664;SDS011;67981;51.022;-2.870;2023-02-28T05:58:25;5.78;;;2.10;;
78664;SDS011;67981;51.022;-2.870;2023-02-28T06:00:55;4.85;;;2.20;;
78664;SDS011;67981;51.022;-2.870;2023-02-28T06:03:24;10.70;;;3.10;;
78664;SDS011;67981;51.022;-2.870;2023-02-28T06:05:49;3.83;;;1.90;;
78664;SDS011;67981;51.022;-2.870;2023-02-28T06:08:15;5.20;;;1.77;;
78664;SDS011;67981;51.022;-2.870;2023-02-28T06:10:41;3.90;;;2.58;;
78664;SDS011;67981;51.022;-2.870;2023-02-28T06:13:06;10.45;;;2.28;;
78664;SDS011;67981;51.022;-2.870;2023-02-28T06:15:32;3.63;;;2.28;;
78664;SDS011;67981;51.022;-2.870;2023-02-28T06:17:57;4.82;;;2.03;;
78664;SDS011;67981;51.022;-2.870;2023-02-28T06:20:23;5.57;;;2.17;;
78664;SDS011;67981;51.022;-2.870;2023-02-28T06:22:51;8.65;;;2.30;;
78664;SDS011;67981;51.022;-2.870;2023-02-28T06:25:17;7.15;;;2.45;;
78664;SDS011;67981;51.022;-2.870;2023-02-28T06:27:43;4.63;;;2.00;;
78664;SDS011;67981;51.022;-2.870;2023-02-28T06:30:09;4.97;;;2.42;;
78664;SDS011;67981;51.022;-2.870;2023-02-28T06:32:36;4.78;;;2.58;;
78664;SDS011;67981;51.022;-2.870;2023-02-28T06:35:01;6.03;;;2.42;;
78664;SDS011;67981;51.022;-2.870;2023-02-28T06:37:28;6.88;;;2.33;;
78664;SDS011;67981;51.022;-2.870;2023-02-28T06:39:53;5.95;;;2.50;;
78664;SDS011;67981;51.022;-2.870;2023-02-28T06:42:21;7.43;;;2.20;;
78664;SDS011;67981;51.022;-2.870;2023-02-28T06:44:49;6.97;;;2.10;;
78664;SDS011;67981;51.022;-2.870;2023-02-28T06:47:15;4.65;;;1.88;;
78664;SDS011;67981;51.022;-2.870;2023-02-28T06:49:41;4.30;;;2.38;;
78664;SDS011;67981;51.022;-2.870;2023-02-28T06:52:06;4.40;;;2.05;;
78664;SDS011;67981;51.022;-2.870;2023-02-28T06:54:32;5.47;;;2.10;;
78664;SDS011;67981;51.022;-2.870;2023-02-28T06:56:57;3.92;;;2.28;;
78664;SDS011;67981;51.022;-2.870;2023-02-28T06:59:23;7.15;;;2.25;;
78664;SDS011;67981;51.022;-2.870;2023-02-28T07:01:49;5.25;;;2.05;;
78664;SDS011;67981;51.022;-2.870;2023-02-28T07:04:14;4.18;;;2.15;;
78664;SDS011;67981;51.022;-2.870;2023-02-28T07:06:39;5.13;;;2.33;;
78664;SDS011;67981;51.022;-2.870;2023-02-28T07:09:05;7.50;;;2.83;;
78664;SDS011;67981;51.022;-2.870;2023-02-28T07:11:31;5.38;;;2.28;;
78664;SDS011;67981;51.022;-2.870;2023-02-28T07:13:57;4.45;;;2.38;;
78664;SDS011;67981;51.022;-2.870;2023-02-28T07:16:23;5.20;;;1.90;;
78664;SDS011;67981;51.022;-2.870;2023-02-28T07:18:49;4.38;;;2.08;;
78664;SDS011;67981;51.022;-2.870;2023-02-28T07:21:17;3.30;;;2.28;;
78664;SDS011;67981;51.022;-2.870;2023-02-28T07:23:42;5.43;;;2.37;;
78664;SDS011;67981;51.022;-2.870;2023-02-28T07:26:11;4.95;;;2.28;;
78664;SDS011;67981;51.022;-2.870;2023-02-28T07:28:39;4.15;;;2.25;;
78664;SDS011;67981;51.022;-2.870;2023-02-28T07:31:09;7.05;;;2.10;;
78664;SDS011;67981;51.022;-2.870;2023-02-28T07:33:35;6.03;;;2.08;;
78664;SDS011;67981;51.022;-2.870;2023-02-28T07:36:04;3.90;;;1.67;;
78664;SDS011;67981;51.022;-2.870;2023-02-28T07:38:35;4.10;;;1.67;;
78664;SDS011;67981;51.022;-2.870;2023-02-28T07:41:01;3.22;;;1.65;;
78664;SDS011;67981;51.022;-2.870;2023-02-28T07:43:29;5.53;;;2.30;;
78664;SDS011;67981;51.022;-2.870;2023-02-28T07:45:55;3.03;;;1.65;;
78664;SDS011;67981;51.022;-2.870;2023-02-28T07:48:25;2.58;;;1.92;;
78664;SDS011;67981;51.022;-2.870;2023-02-28T07:50:55;10.27;;;2.03;;
78664;SDS011;67981;51.022;-2.870;2023-02-28T07:53:21;7.13;;;2.40;;
78664;SDS011;67981;51.022;-2.870;2023-02-28T07:55:47;5.22;;;2.28;;
78664;SDS011;67981;51.022;-2.870;2023-02-28T07:58:12;5.30;;;2.05;;
78664;SDS011;67981;51.022;-2.870;2023-02-28T08:00:38;7.63;;;2.10;;
78664;SDS011;67981;51.022;-2.870;2023-02-28T08:03:03;3.80;;;1.75;;
78664;SDS011;67981;51.022;-2.870;2023-02-28T08:05:28;3.50;;;2.03;;
78664;SDS011;67981;51.022;-2.870;2023-02-28T08:07:55;4.45;;;1.90;;
78664;SDS011;67981;51.022;-2.870;2023-02-28T08:10:20;5.40;;;2.35;;
78664;SDS011;67981;51.022;-2.870;2023-02-28T08:12:46;4.38;;;1.52;;
78664;SDS011;67981;51.022;-2.870;2023-02-28T08:15:11;3.30;;;2.03;;
78664;SDS011;67981;51.022;-2.870;2023-02-28T08:17:37;4.68;;;2.08;;
78664;SDS011;67981;51.022;-2.870;2023-02-28T08:20:02;6.40;;;1.95;;
78664;SDS011;67981;51.022;-2.870;2023-02-28T08:22:29;5.35;;;2.90;;
78664;SDS011;67981;51.022;-2.870;2023-02-28T08:24:54;4.25;;;2.13;;
78664;SDS011;67981;51.022;-2.870;2023-02-28T08:27:19;5.32;;;2.20;;
78664;SDS011;67981;51.022;-2.870;2023-02-28T08:29:45;3.25;;;2.00;;
78664;SDS011;67981;51.022;-2.870;2023-02-28T08:32:11;4.10;;;2.33;;
78664;SDS011;67981;51.022;-2.870;2023-02-28T08:34:38;3.08;;;2.45;;
78664;SDS011;67981;51.022;-2.870;2023-02-28T08:37:04;4.68;;;2.08;;
78664;SDS011;67981;51.022;-2.870;2023-02-28T08:39:29;5.53;;;3.03;;
78664;SDS011;67981;51.022;-2.870;2023-02-28T08:41:55;3.97;;;2.20;;
78664;SDS011;67981;51.022;-2.870;2023-02-28T08:44:20;5.72;;;3.05;;
78664;SDS011;67981;51.022;-2.870;2023-02-28T08:46:46;5.47;;;3.15;;
78664;SDS011;67981;51.022;-2.870;2023-02-28T08:49:11;5.90;;;2.58;;
78664;SDS011;67981;51.022;-2.870;2023-02-28T08:51:38;7.38;;;2.80;;
78664;SDS011;67981;51.022;-2.870;2023-02-28T08:54:04;4.30;;;2.33;;
78664;SDS011;67981;51.022;-2.870;2023-02-28T08:56:29;5.93;;;2.65;;
78664;SDS011;67981;51.022;-2.870;2023-02-28T08:58:56;8.18;;;2.70;;
78664;SDS011;67981;51.022;-2.870;2023-02-28T09:01:23;3.97;;;2.15;;
78664;SDS011;67981;51.022;-2.870;2023-02-28T09:03:51;4.13;;;2.45;;
78664;SDS011;67981;51.022;-2.870;2023-02-28T09:06:17;4.72;;;2.78;;
78664;SDS011;67981;51.022;-2.870;2023-02-28T09:08:44;10.18;;;3.75;;
78664;SDS011;67981;51.022;-2.870;2023-02-28T09:11:10;9.27;;;5.03;;
78664;SDS011;67981;51.022;-2.870;2023-02-28T09:13:36;8.93;;;4.50;;
78664;SDS011;67981;51.022;-2.870;2023-02-28T09:16:03;10.13;;;6.22;;
78664;SDS011;67981;51.022;-2.870;2023-02-28T09:18:30;9.23;;;5.00;;
78664;SDS011;67981;51.022;-2.870;2023-02-28T09:20:55;11.35;;;5.22;;
78664;SDS011;67981;51.022;-2.870;2023-02-28T09:23:22;11.48;;;4.78;;
78664;SDS011;67981;51.022;-2.870;2023-02-28T09:25:52;9.93;;;5.30;;
78664;SDS011;67981;51.022;-2.870;2023-02-28T09:28:19;11.55;;;5.38;;
78664;SDS011;67981;51.022;-2.870;2023-02-28T09:30:47;11.75;;;6.63;;
78664;SDS011;67981;51.022;-2.870;2023-02-28T09:33:14;10.77;;;5.88;;
78664;SDS011;67981;51.022;-2.870;2023-02-28T09:35:40;9.30;;;5.15;;
78664;SDS011;67981;51.022;-2.870;2023-02-28T09:38:06;8.25;;;5.47;;
78664;SDS011;67981;51.022;-2.870;2023-02-28T09:43:09;11.55;;;7.15;;
78664;SDS011;67981;51.022;-2.870;2023-02-28T09:45:39;11.10;;;5.55;;
78664;SDS011;67981;51.022;-2.870;2023-02-28T09:48:12;11.43;;;6.60;;
78664;SDS011;67981;51.022;-2.870;2023-02-28T09:50:43;12.75;;;6.75;;
78664;SDS011;67981;51.022;-2.870;2023-02-28T09:55:59;10.20;;;5.85;;
78664;SDS011;67981;51.022;-2.870;2023-02-28T09:58:40;10.88;;;7.30;;
78664;SDS011;67981;51.022;-2.870;2023-02-28T10:04:32;11.68;;;6.03;;
78664;SDS011;67981;51.022;-2.870;2023-02-28T10:06:44;10.30;;;5.88;;
78664;SDS011;67981;51.022;-2.870;2023-02-28T10:09:15;9.85;;;6.35;;
78664;SDS011;67981;51.022;-2.870;2023-02-28T10:11:42;11.52;;;5.95;;
78664;SDS011;67981;51.022;-2.870;2023-02-28T10:14:16;8.75;;;6.15;;
78664;SDS011;67981;51.022;-2.870;2023-02-28T10:19:43;11.98;;;6.03;;
78664;SDS011;67981;51.022;-2.870;2023-02-28T10:22:38;8.68;;;5.35;;
78664;SDS011;67981;51.022;-2.870;2023-02-28T10:25:19;10.45;;;6.57;;
78664;SDS011;67981;51.022;-2.870;2023-02-28T10:27:49;8.43;;;5.25;;
78664;SDS011;67981;51.022;-2.870;2023-02-28T10:30:18;24.02;;;12.25;;
78664;SDS011;67981;51.022;-2.870;2023-02-28T10:32:46;9.18;;;5.15;;
78664;SDS011;67981;51.022;-2.870;2023-02-28T10:35:17;7.13;;;4.82;;
78664;SDS011;67981;51.022;-2.870;2023-02-28T10:37:51;9.73;;;5.57;;
78664;SDS011;67981;51.022;-2.870;2023-02-28T10:42:56;8.97;;;4.77;;
78664;SDS011;67981;51.022;-2.870;2023-02-28T10:45:25;8.40;;;4.03;;
78664;SDS011;67981;51.022;-2.870;2023-02-28T10:47:54;5.57;;;3.55;;
78664;SDS011;67981;51.022;-2.870;2023-02-28T10:56:05;8.27;;;4.55;;
78664;SDS011;67981;51.022;-2.870;2023-02-28T11:02:07;7.90;;;4.85;;
78664;SDS011;67981;51.022;-2.870;2023-02-28T11:09:50;8.90;;;5.82;;
78664;SDS011;67981;51.022;-2.870;2023-02-28T11:12:25;7.50;;;4.32;;
78664;SDS011;67981;51.022;-2.870;2023-02-28T11:14:55;7.95;;;4.72;;
78664;SDS011;67981;51.022;-2.870;2023-02-28T11:17:24;7.55;;;4.18;;
78664;SDS011;67981;51.022;-2.870;2023-02-28T11:20:17;7.28;;;3.85;;
78664;SDS011;67981;51.022;-2.870;2023-02-28T11:22:44;8.13;;;5.70;;
78664;SDS011;67981;51.022;-2.870;2023-02-28T11:33:45;8.57;;;5.13;;
78664;SDS011;67981;51.022;-2.870;2023-02-28T11:38:52;8.23;;;5.03;;
78664;SDS011;67981;51.022;-2.870;2023-02-28T11:41:26;5.95;;;4.28;;
78664;SDS011;67981;51.022;-2.870;2023-02-28T11:46:34;3.15;;;2.28;;
78664;SDS011;67981;51.022;-2.870;2023-02-28T11:51:57;5.38;;;4.13;;
78664;SDS011;67981;51.022;-2.870;2023-02-28T12:05:26;4.68;;;3.05;;
78664;SDS011;67981;51.022;-2.870;2023-02-28T12:10:29;4.30;;;3.05;;
78664;SDS011;67981;51.022;-2.870;2023-02-28T12:13:10;5.78;;;3.40;;
78664;SDS011;67981;51.022;-2.870;2023-02-28T12:22:02;5.07;;;3.40;;
78664;SDS011;67981;51.022;-2.870;2023-02-28T12:27:07;5.43;;;3.42;;
78664;SDS011;67981;51.022;-2.870;2023-02-28T12:29:42;6.15;;;3.22;;
78664;SDS011;67981;51.022;-2.870;2023-02-28T12:32:16;5.43;;;3.20;;
78664;SDS011;67981;51.022;-2.870;2023-02-28T12:34:55;5.28;;;2.80;;
78664;SDS011;67981;51.022;-2.870;2023-02-28T12:40:15;5.22;;;2.88;;
78664;SDS011;67981;51.022;-2.870;2023-02-28T12:42:46;5.97;;;3.28;;
78664;SDS011;67981;51.022;-2.870;2023-02-28T12:45:27;5.80;;;3.15;;
78664;SDS011;67981;51.022;-2.870;2023-02-28T12:48:05;5.88;;;3.53;;
78664;SDS011;67981;51.022;-2.870;2023-02-28T12:50:33;6.15;;;3.17;;
78664;SDS011;67981;51.022;-2.870;2023-02-28T13:09:51;7.38;;;5.50;;
78664;SDS011;67981;51.022;-2.870;2023-02-28T13:12:19;6.97;;;4.72;;
78664;SDS011;67981;51.022;-2.870;2023-02-28T13:14:45;8.48;;;3.83;;
78664;SDS011;67981;51.022;-2.870;2023-02-28T13:17:12;8.30;;;5.47;;
78664;SDS011;67981;51.022;-2.870;2023-02-28T13:19:45;10.40;;;5.47;;
78664;SDS011;67981;51.022;-2.870;2023-02-28T13:24:51;8.27;;;4.85;;
78664;SDS011;67981;51.022;-2.870;2023-02-28T13:27:23;11.55;;;5.38;;
78664;SDS011;67981;51.022;-2.870;2023-02-28T13:29:56;7.35;;;4.40;;
78664;SDS011;67981;51.022;-2.870;2023-02-28T13:40:22;7.75;;;4.88;;
78664;SDS011;67981;51.022;-2.870;2023-02-28T13:42:53;9.65;;;4.88;;
78664;SDS011;67981;51.022;-2.870;2023-02-28T13:45:25;10.18;;;5.97;;
78664;SDS011;67981;51.022;-2.870;2023-02-28T13:47:53;8.00;;;5.50;;
78664;SDS011;67981;51.022;-2.870;2023-02-28T13:50:28;7.90;;;4.40;;
78664;SDS011;67981;51.022;-2.870;2023-02-28T13:58:36;10.25;;;5.32;;
78664;SDS011;67981;51.022;-2.870;2023-02-28T14:06:27;8.57;;;4.43;;
78664;SDS011;67981;51.022;-2.870;2023-02-28T14:08:58;7.28;;;4.15;;
78664;SDS011;67981;51.022;-2.870;2023-02-28T14:11:32;8.35;;;4.70;;
78664;SDS011;67981;51.022;-2.870;2023-02-28T14:13:58;8.50;;;4.97;;
78664;SDS011;67981;51.022;-2.870;2023-02-28T14:16:25;5.78;;;3.40;;
78664;SDS011;67981;51.022;-2.870;2023-02-28T14:18:58;9.18;;;4.22;;
78664;SDS011;67981;51.022;-2.870;2023-02-28T14:21:33;8.07;;;3.97;;
78664;SDS011;67981;51.022;-2.870;2023-02-28T14:27:00;6.30;;;3.40;;
78664;SDS011;67981;51.022;-2.870;2023-02-28T14:32:43;21.23;;;11.25;;
78664;SDS011;67981;51.022;-2.870;2023-02-28T14:38:25;5.35;;;2.95;;
78664;SDS011;67981;51.022;-2.870;2023-02-28T14:40:55;4.90;;;2.60;;
78664;SDS011;67981;51.022;-2.870;2023-02-28T14:43:24;5.88;;;2.47;;
78664;SDS011;67981;51.022;-2.870;2023-02-28T14:45:55;5.85;;;3.22;;
78664;SDS011;67981;51.022;-2.870;2023-02-28T14:48:23;4.82;;;2.83;;
78664;SDS011;67981;51.022;-2.870;2023-02-28T14:50:51;4.75;;;2.80;;
78664;SDS011;67981;51.022;-2.870;2023-02-28T14:53:19;7.00;;;4.47;;
78664;SDS011;67981;51.022;-2.870;2023-02-28T14:55:48;6.47;;;3.22;;
78664;SDS011;67981;51.022;-2.870;2023-02-28T14:58:27;6.35;;;3.90;;
78664;SDS011;67981;51.022;-2.870;2023-02-28T15:00:56;4.80;;;3.38;;
78664;SDS011;67981;51.022;-2.870;2023-02-28T15:06:12;5.15;;;3.30;;
78664;SDS011;67981;51.022;-2.870;2023-02-28T15:08:39;5.75;;;3.60;;
78664;SDS011;67981;51.022;-2.870;2023-02-28T15:11:05;5.90;;;3.00;;
78664;SDS011;67981;51.022;-2.870;2023-02-28T15:19:05;8.60;;;4.57;;
78664;SDS011;67981;51.022;-2.870;2023-02-28T15:21:38;6.47;;;3.92;;
78664;SDS011;67981;51.022;-2.870;2023-02-28T15:26:49;6.85;;;3.05;;
78664;SDS011;67981;51.022;-2.870;2023-02-28T15:29:19;4.88;;;2.88;;
78664;SDS011;67981;51.022;-2.870;2023-02-28T15:31:52;4.78;;;3.22;;
78664;SDS011;67981;51.022;-2.870;2023-02-28T15:36:52;6.22;;;2.72;;
78664;SDS011;67981;51.022;-2.870;2023-02-28T15:39:21;4.82;;;2.78;;
78664;SDS011;67981;51.022;-2.870;2023-02-28T15:41:49;4.53;;;2.60;;
78664;SDS011;67981;51.022;-2.870;2023-02-28T15:46:43;4.07;;;2.42;;
78664;SDS011;67981;51.022;-2.870;2023-02-28T15:49:19;5.15;;;2.97;;
78664;SDS011;67981;51.022;-2.870;2023-02-28T15:51:47;4.45;;;2.45;;
78664;SDS011;67981;51.022;-2.870;2023-02-28T15:54:17;4.40;;;2.28;;
78664;SDS011;67981;51.022;-2.870;2023-02-28T15:56:52;4.75;;;2.60;;
78664;SDS011;67981;51.022;-2.870;2023-02-28T15:59:24;5.82;;;2.90;;
78664;SDS011;67981;51.022;-2.870;2023-02-28T16:02:14;4.07;;;2.28;;
78664;SDS011;67981;51.022;-2.870;2023-02-28T16:07:39;3.78;;;2.58;;
78664;SDS011;67981;51.022;-2.870;2023-02-28T16:10:07;4.65;;;2.88;;
78664;SDS011;67981;51.022;-2.870;2023-02-28T16:12:35;4.80;;;3.08;;
78664;SDS011;67981;51.022;-2.870;2023-02-28T16:15:06;5.13;;;2.40;;
78664;SDS011;67981;51.022;-2.870;2023-02-28T16:17:35;11.77;;;7.20;;
78664;SDS011;67981;51.022;-2.870;2023-02-28T16:20:25;4.40;;;2.20;;
78664;SDS011;67981;51.022;-2.870;2023-02-28T16:22:51;4.32;;;2.10;;
78664;SDS011;67981;51.022;-2.870;2023-02-28T16:25:22;4.07;;;2.78;;
78664;SDS011;67981;51.022;-2.870;2023-02-28T16:27:53;2.83;;;1.85;;
78664;SDS011;67981;51.022;-2.870;2023-02-28T16:30:24;4.70;;;3.15;;
78664;SDS011;67981;51.022;-2.870;2023-02-28T16:32:51;5.35;;;2.58;;
78664;SDS011;67981;51.022;-2.870;2023-02-28T16:35:19;3.75;;;2.30;;
78664;SDS011;67981;51.022;-2.870;2023-02-28T16:37:45;4.70;;;2.55;;
78664;SDS011;67981;51.022;-2.870;2023-02-28T16:40:15;4.80;;;2.95;;
78664;SDS011;67981;51.022;-2.870;2023-02-28T16:42:46;7.88;;;5.35;;
78664;SDS011;67981;51.022;-2.870;2023-02-28T16:45:17;4.93;;;2.70;;
78664;SDS011;67981;51.022;-2.870;2023-02-28T16:47:46;6.35;;;3.95;;
78664;SDS011;67981;51.022;-2.870;2023-02-28T16:50:15;6.05;;;4.15;;
78664;SDS011;67981;51.022;-2.870;2023-02-28T16:52:48;9.27;;;5.32;;
78664;SDS011;67981;51.022;-2.870;2023-02-28T16:55:17;4.68;;;2.83;;
78664;SDS011;67981;51.022;-2.870;2023-02-28T16:57:43;5.20;;;3.70;;
78664;SDS011;67981;51.022;-2.870;2023-02-28T17:00:15;11.25;;;6.18;;
78664;SDS011;67981;51.022;-2.870;2023-02-28T17:02:40;4.90;;;3.00;;
78664;SDS011;67981;51.022;-2.870;2023-02-28T17:05:06;4.75;;;3.33;;
78664;SDS011;67981;51.022;-2.870;2023-02-28T17:07:31;4.45;;;2.78;;
78664;SDS011;67981;51.022;-2.870;2023-02-28T17:09:57;5.93;;;3.13;;
78664;SDS011;67981;51.022;-2.870;2023-02-28T17:12:22;5.28;;;4.13;;
78664;SDS011;67981;51.022;-2.870;2023-02-28T17:14:48;7.05;;;3.65;;
78664;SDS011;67981;51.022;-2.870;2023-02-28T17:17:15;6.68;;;3.22;;
78664;SDS011;67981;51.022;-2.870;2023-02-28T17:19:45;4.50;;;2.88;;
78664;SDS011;67981;51.022;-2.870;2023-02-28T17:22:10;4.50;;;2.90;;
78664;SDS011;67981;51.022;-2.870;2023-02-28T17:24:36;5.55;;;3.13;;
78664;SDS011;67981;51.022;-2.870;2023-02-28T17:27:02;6.18;;;3.50;;
78664;SDS011;67981;51.022;-2.870;2023-02-28T17:29:28;7.22;;;4.50;;
78664;SDS011;67981;51.022;-2.870;2023-02-28T17:31:54;6.38;;;3.92;;
78664;SDS011;67981;51.022;-2.870;2023-02-28T17:34:19;4.75;;;3.13;;
78664;SDS011;67981;51.022;-2.870;2023-02-28T17:36:48;4.95;;;3.40;;
78664;SDS011;67981;51.022;-2.870;2023-02-28T17:39:15;5.13;;;3.17;;